Mykonos, Greece
Current Conditions -  °F | °C
As of 5:50 PM on Thursday 30 Oct 2014 (Local Time) from LGMK Reporting Station
Scattered Clouds Scattered Clouds  
Wind Chill: 63°   Ceiling: Unl
Heat Index: 63°   Visibility: 6mi
Dew Point: 54°   Wind: 16mph
Humidity: 72%   Direction: 340°NNW
Pressure: 30.03"   Gusts: NA
Location:  38.03°N, 25.36°E
Report Text: LGMK 301450Z 34014KT 9999 SCT018 17/12 Q1017
Loading
Personal Weather Stations






























Interactive Weather Map
Tropical Storm Tracking
New forecast layout! Learn more

10-Day Weather Forecast

Advertisements
Track Severe Weather on mobile